INFORMAÇÕES DO AERODROMO
Icao Aerodromo CYRV Nome do Aerodromo Revelstoke Airport Cidade Revelstoke
Código GPS CYRV Elevação Média 1459 ft Tipo de Aerodromo Aeroporto Médio Porte

INFORMAÇÃO DE PISTA
Pista 12 Comprimento da Pista 4800 ft Largura da Pista 75 ft
Elevação da Pista 1457 ft Distância de Area de Escape da Pista 0 ft Orientação da Pista 138
Pista 30 Comprimento da Pista 4800 ft Largura da Pista 75 ft
Elevação da Pista 1459 ft Distância de Area de Escape da Pista 300 ft Orientação da Pista 318

FREQUÊNCIAS DO AERODROMO
Tipo RCO Nome PACIFIC RD Frequência 126.7 MHZ
Tipo UNIC Nome ATF/UNICOM Frequência 122.8 MHZ

INFORMAÇÕES DE NAVEGAÇÃO PRÓXIMO AO AERODROMO

Informações de Meteorologia(METAR atual)
METAR DE CYRV
ADDS - METARS form results

(0844 UTC 24 September 2019)
Data provider http://aviationweather.gov/metar/data/
 
METAR text: CYRV 240831Z AUTO 16002KT 9SM SCT004 OVC060 11/11 A2999 RMK SLP163
Conditions at: CYRV (REVELSTOKE AIRPO, BC, CA) observed 0831 UTC 24 September 2019
Temperature: 11.0°C (52°F)
Dewpoint: 11.0°C (52°F) [RH = 100%]
Pressure (altimeter): 29.99 inches Hg (1015.7 mb)
[Sea-level pressure: 1016.3 mb]
Winds: from the SSE (160 degrees) at 2 MPH (2 knots; 1.0 m/s)
Visibility: 9 miles (14 km)
Ceiling: 6000 feet AGL
Clouds: scattered clouds at 400 feet AGL
overcast cloud deck at 6000 feet AGL
Weather: no significant weather observed at this time

METAR text: CYRV 240800Z AUTO VRB02KT 9SM BKN004 OVC008 11/11 A2999 RMK SLP163
Conditions at: CYRV (REVELSTOKE AIRPO, BC, CA) observed 0800 UTC 24 September 2019
Temperature: 11.0°C (52°F)
Dewpoint: 11.0°C (52°F) [RH = 100%]
Pressure (altimeter): 29.99 inches Hg (1015.7 mb)
[Sea-level pressure: 1016.3 mb]
Winds: variable direction winds at 2 MPH (2 knots; 1.0 m/s)
Visibility: 9 miles (14 km)
Ceiling: 400 feet AGL
Clouds: broken clouds at 400 feet AGL
overcast cloud deck at 800 feet AGL
Weather: no significant weather observed at this time

MAPA DO AERODROMO


Desenvolvido por Virtual Airlines Manager




Modificado por Servidor Brasil Amigos